sensor_id;sensor_type;location;lat;lon;timestamp;pressure;altitude;pressure_sealevel;temperature;humidity
13695;BME280;6919;52.344;14.518;2023-10-19T00:01:16;99837.84;;;6.92;100.00
13695;BME280;6919;52.344;14.518;2023-10-19T00:03:45;99834.81;;;7.04;100.00
13695;BME280;6919;52.344;14.518;2023-10-19T00:06:13;99828.88;;;7.10;100.00
13695;BME280;6919;52.344;14.518;2023-10-19T00:08:42;99821.16;;;7.07;100.00
13695;BME280;6919;52.344;14.518;2023-10-19T00:11:12;99812.09;;;7.00;100.00
13695;BME280;6919;52.344;14.518;2023-10-19T00:13:49;99796.09;;;7.00;100.00
13695;BME280;6919;52.344;14.518;2023-10-19T00:16:18;99796.72;;;6.94;100.00
13695;BME280;6919;52.344;14.518;2023-10-19T00:18:49;99804.03;;;6.92;100.00
13695;BME280;6919;52.344;14.518;2023-10-19T00:21:19;99797.09;;;6.82;100.00
13695;BME280;6919;52.344;14.518;2023-10-19T00:23:49;99788.13;;;7.00;100.00
13695;BME280;6919;52.344;14.518;2023-10-19T00:26:20;99769.84;;;7.05;100.00
13695;BME280;6919;52.344;14.518;2023-10-19T00:28:48;99770.31;;;7.01;100.00
13695;BME280;6919;52.344;14.518;2023-10-19T00:31:19;99762.59;;;6.98;100.00
13695;BME280;6919;52.344;14.518;2023-10-19T00:33:47;99760.03;;;6.88;100.00
13695;BME280;6919;52.344;14.518;2023-10-19T00:36:18;99750.13;;;6.98;100.00
13695;BME280;6919;52.344;14.518;2023-10-19T00:38:50;99735.16;;;6.97;100.00
13695;BME280;6919;52.344;14.518;2023-10-19T00:41:24;99741.16;;;6.82;100.00
13695;BME280;6919;52.344;14.518;2023-10-19T00:43:57;99735.00;;;6.99;100.00
13695;BME280;6919;52.344;14.518;2023-10-19T00:46:30;99739.69;;;7.05;100.00
13695;BME280;6919;52.344;14.518;2023-10-19T00:49:02;99735.28;;;6.96;100.00
13695;BME280;6919;52.344;14.518;2023-10-19T00:51:37;99730.25;;;6.93;100.00
13695;BME280;6919;52.344;14.518;2023-10-19T00:54:16;99721.56;;;6.91;100.00
13695;BME280;6919;52.344;14.518;2023-10-19T00:56:55;99717.75;;;6.93;100.00
13695;BME280;6919;52.344;14.518;2023-10-19T00:59:26;99716.72;;;7.04;100.00
13695;BME280;6919;52.344;14.518;2023-10-19T01:02:01;99706.66;;;6.98;100.00
13695;BME280;6919;52.344;14.518;2023-10-19T01:04:44;99709.53;;;6.87;100.00
13695;BME280;6919;52.344;14.518;2023-10-19T01:07:18;99707.66;;;6.97;100.00
13695;BME280;6919;52.344;14.518;2023-10-19T01:09:50;99697.44;;;7.10;100.00
13695;BME280;6919;52.344;14.518;2023-10-19T01:12:21;99696.59;;;7.09;100.00
13695;BME280;6919;52.344;14.518;2023-10-19T01:15:08;99691.41;;;7.08;100.00
13695;BME280;6919;52.344;14.518;2023-10-19T01:17:42;99695.16;;;6.97;100.00
13695;BME280;6919;52.344;14.518;2023-10-19T01:20:15;99689.53;;;6.83;100.00
13695;BME280;6919;52.344;14.518;2023-10-19T01:22:53;99683.84;;;6.78;100.00
13695;BME280;6919;52.344;14.518;2023-10-19T01:25:34;99675.06;;;6.85;100.00
13695;BME280;6919;52.344;14.518;2023-10-19T01:28:13;99660.84;;;6.94;100.00
13695;BME280;6919;52.344;14.518;2023-10-19T01:30:44;99643.47;;;6.90;100.00
13695;BME280;6919;52.344;14.518;2023-10-19T01:33:13;99647.28;;;6.88;100.00
13695;BME280;6919;52.344;14.518;2023-10-19T01:35:42;99646.44;;;6.87;100.00
13695;BME280;6919;52.344;14.518;2023-10-19T01:38:30;99647.97;;;6.90;100.00
13695;BME280;6919;52.344;14.518;2023-10-19T01:40:59;99650.28;;;6.85;100.00
13695;BME280;6919;52.344;14.518;2023-10-19T01:43:28;99643.47;;;6.73;100.00
13695;BME280;6919;52.344;14.518;2023-10-19T01:45:59;99636.78;;;6.69;100.00
13695;BME280;6919;52.344;14.518;2023-10-19T01:48:31;99622.22;;;6.81;100.00
13695;BME280;6919;52.344;14.518;2023-10-19T01:51:04;99628.19;;;6.75;100.00
13695;BME280;6919;52.344;14.518;2023-10-19T01:53:34;99634.06;;;6.61;100.00
13695;BME280;6919;52.344;14.518;2023-10-19T01:56:03;99615.19;;;6.72;100.00
13695;BME280;6919;52.344;14.518;2023-10-19T01:58:32;99604.22;;;6.75;100.00
13695;BME280;6919;52.344;14.518;2023-10-19T02:01:05;99601.56;;;6.75;100.00
13695;BME280;6919;52.344;14.518;2023-10-19T02:03:41;99596.38;;;6.73;100.00
13695;BME280;6919;52.344;14.518;2023-10-19T02:06:12;99594.19;;;6.69;100.00
13695;BME280;6919;52.344;14.518;2023-10-19T02:08:50;99594.19;;;6.69;100.00
13695;BME280;6919;52.344;14.518;2023-10-19T02:11:20;99592.59;;;6.58;100.00
13695;BME280;6919;52.344;14.518;2023-10-19T02:13:50;99587.63;;;6.63;100.00
13695;BME280;6919;52.344;14.518;2023-10-19T02:16:19;99574.84;;;6.67;100.00
13695;BME280;6919;52.344;14.518;2023-10-19T02:18:50;99570.31;;;6.59;100.00
13695;BME280;6919;52.344;14.518;2023-10-19T02:21:19;99561.25;;;6.52;100.00
13695;BME280;6919;52.344;14.518;2023-10-19T02:23:51;99563.69;;;6.46;100.00
13695;BME280;6919;52.344;14.518;2023-10-19T02:26:19;99575.09;;;6.38;100.00
13695;BME280;6919;52.344;14.518;2023-10-19T02:28:50;99571.69;;;6.28;100.00
13695;BME280;6919;52.344;14.518;2023-10-19T02:31:19;99576.78;;;6.22;100.00
13695;BME280;6919;52.344;14.518;2023-10-19T02:33:50;99571.06;;;6.17;100.00
13695;BME280;6919;52.344;14.518;2023-10-19T02:36:19;99576.53;;;6.15;100.00
13695;BME280;6919;52.344;14.518;2023-10-19T02:38:47;99572.06;;;6.16;100.00
13695;BME280;6919;52.344;14.518;2023-10-19T02:41:20;99573.34;;;6.12;100.00
13695;BME280;6919;52.344;14.518;2023-10-19T02:43:48;99565.22;;;6.13;100.00
13695;BME280;6919;52.344;14.518;2023-10-19T02:46:18;99563.06;;;6.17;100.00
13695;BME280;6919;52.344;14.518;2023-10-19T02:48:47;99560.25;;;6.18;100.00
13695;BME280;6919;52.344;14.518;2023-10-19T02:51:16;99549.63;;;6.18;100.00
13695;BME280;6919;52.344;14.518;2023-10-19T02:53:46;99548.94;;;6.34;100.00
13695;BME280;6919;52.344;14.518;2023-10-19T02:56:16;99550.69;;;6.43;100.00
13695;BME280;6919;52.344;14.518;2023-10-19T02:58:46;99539.94;;;6.52;100.00
13695;BME280;6919;52.344;14.518;2023-10-19T03:01:20;99534.53;;;6.62;100.00
13695;BME280;6919;52.344;14.518;2023-10-19T03:03:52;99535.38;;;6.62;100.00
13695;BME280;6919;52.344;14.518;2023-10-19T03:06:22;99529.81;;;6.56;100.00
13695;BME280;6919;52.344;14.518;2023-10-19T03:08:50;99531.97;;;6.52;100.00
13695;BME280;6919;52.344;14.518;2023-10-19T03:11:24;99527.53;;;6.61;100.00
13695;BME280;6919;52.344;14.518;2023-10-19T03:13:53;99525.03;;;6.59;100.00
13695;BME280;6919;52.344;14.518;2023-10-19T03:16:24;99521.06;;;6.63;100.00
13695;BME280;6919;52.344;14.518;2023-10-19T03:18:51;99510.25;;;6.65;100.00
13695;BME280;6919;52.344;14.518;2023-10-19T03:21:22;99513.91;;;6.64;100.00
13695;BME280;6919;52.344;14.518;2023-10-19T03:23:53;99507.59;;;6.65;100.00
13695;BME280;6919;52.344;14.518;2023-10-19T03:26:23;99509.88;;;6.60;100.00
13695;BME280;6919;52.344;14.518;2023-10-19T03:28:59;99504.88;;;6.57;100.00
13695;BME280;6919;52.344;14.518;2023-10-19T03:31:30;99497.94;;;6.64;100.00
13695;BME280;6919;52.344;14.518;2023-10-19T03:34:00;99483.34;;;6.50;100.00
13695;BME280;6919;52.344;14.518;2023-10-19T03:36:32;99487.19;;;6.56;100.00
13695;BME280;6919;52.344;14.518;2023-10-19T03:39:00;99484.69;;;6.54;100.00
13695;BME280;6919;52.344;14.518;2023-10-19T03:41:38;99473.19;;;6.46;100.00
13695;BME280;6919;52.344;14.518;2023-10-19T03:44:11;99465.00;;;6.47;100.00
13695;BME280;6919;52.344;14.518;2023-10-19T03:46:46;99456.97;;;6.39;100.00
13695;BME280;6919;52.344;14.518;2023-10-19T03:49:25;99445.72;;;6.28;100.00
13695;BME280;6919;52.344;14.518;2023-10-19T03:52:00;99444.63;;;6.30;100.00
13695;BME280;6919;52.344;14.518;2023-10-19T03:54:48;99449.44;;;6.35;100.00
13695;BME280;6919;52.344;14.518;2023-10-19T03:57:19;99445.13;;;6.34;100.00
13695;BME280;6919;52.344;14.518;2023-10-19T03:59:52;99443.97;;;6.36;100.00
13695;BME280;6919;52.344;14.518;2023-10-19T04:02:25;99436.63;;;6.30;100.00
13695;BME280;6919;52.344;14.518;2023-10-19T04:04:56;99438.75;;;6.27;100.00
13695;BME280;6919;52.344;14.518;2023-10-19T04:07:26;99435.94;;;6.28;100.00
13695;BME280;6919;52.344;14.518;2023-10-19T04:09:58;99435.78;;;6.30;100.00
13695;BME280;6919;52.344;14.518;2023-10-19T04:12:39;99435.47;;;6.33;100.00
13695;BME280;6919;52.344;14.518;2023-10-19T04:15:11;99420.50;;;6.32;100.00
13695;BME280;6919;52.344;14.518;2023-10-19T04:17:43;99422.47;;;6.30;100.00
13695;BME280;6919;52.344;14.518;2023-10-19T04:20:15;99422.66;;;6.36;100.00
13695;BME280;6919;52.344;14.518;2023-10-19T04:22:56;99416.22;;;6.39;100.00
13695;BME280;6919;52.344;14.518;2023-10-19T04:25:32;99406.94;;;6.43;100.00
13695;BME280;6919;52.344;14.518;2023-10-19T04:28:01;99411.25;;;6.44;100.00
13695;BME280;6919;52.344;14.518;2023-10-19T04:30:31;99401.66;;;6.51;100.00
13695;BME280;6919;52.344;14.518;2023-10-19T04:33:00;99400.28;;;6.47;100.00
13695;BME280;6919;52.344;14.518;2023-10-19T04:35:28;99396.16;;;6.52;100.00
13695;BME280;6919;52.344;14.518;2023-10-19T04:37:59;99395.63;;;6.49;100.00
13695;BME280;6919;52.344;14.518;2023-10-19T04:40:28;99395.31;;;6.52;100.00
13695;BME280;6919;52.344;14.518;2023-10-19T04:42:56;99400.13;;;6.48;100.00
13695;BME280;6919;52.344;14.518;2023-10-19T04:45:25;99398.38;;;6.57;100.00
13695;BME280;6919;52.344;14.518;2023-10-19T04:47:55;99396.34;;;6.59;100.00
13695;BME280;6919;52.344;14.518;2023-10-19T04:50:23;99402.88;;;6.64;100.00
13695;BME280;6919;52.344;14.518;2023-10-19T04:52:51;99402.72;;;6.66;100.00
13695;BME280;6919;52.344;14.518;2023-10-19T04:55:20;99398.25;;;6.66;100.00
13695;BME280;6919;52.344;14.518;2023-10-19T04:57:48;99398.09;;;6.68;100.00
13695;BME280;6919;52.344;14.518;2023-10-19T05:00:19;99390.03;;;6.60;100.00
13695;BME280;6919;52.344;14.518;2023-10-19T05:02:48;99394.22;;;6.62;100.00
13695;BME280;6919;52.344;14.518;2023-10-19T05:05:20;99381.06;;;6.61;100.00
13695;BME280;6919;52.344;14.518;2023-10-19T05:07:49;99395.03;;;6.63;100.00
13695;BME280;6919;52.344;14.518;2023-10-19T05:10:17;99382.75;;;6.70;100.00
13695;BME280;6919;52.344;14.518;2023-10-19T05:12:47;99384.28;;;6.72;100.00
13695;BME280;6919;52.344;14.518;2023-10-19T05:15:15;99395.56;;;6.66;100.00
13695;BME280;6919;52.344;14.518;2023-10-19T05:17:45;99395.88;;;6.63;100.00
13695;BME280;6919;52.344;14.518;2023-10-19T05:20:14;99388.78;;;6.72;100.00
13695;BME280;6919;52.344;14.518;2023-10-19T05:22:43;99392.09;;;6.74;100.00
13695;BME280;6919;52.344;14.518;2023-10-19T05:25:12;99389.81;;;6.79;100.00
13695;BME280;6919;52.344;14.518;2023-10-19T05:27:40;99376.34;;;6.80;100.00
13695;BME280;6919;52.344;14.518;2023-10-19T05:30:10;99380.47;;;6.75;100.00
13695;BME280;6919;52.344;14.518;2023-10-19T05:32:38;99380.47;;;6.75;100.00
13695;BME280;6919;52.344;14.518;2023-10-19T05:35:07;99379.00;;;6.80;100.00
13695;BME280;6919;52.344;14.518;2023-10-19T05:37:40;99382.97;;;6.76;100.00
13695;BME280;6919;52.344;14.518;2023-10-19T05:40:11;99369.34;;;6.79;100.00
13695;BME280;6919;52.344;14.518;2023-10-19T05:42:39;99367.50;;;6.80;100.00
13695;BME280;6919;52.344;14.518;2023-10-19T05:45:08;99363.47;;;6.76;100.00
13695;BME280;6919;52.344;14.518;2023-10-19T05:47:40;99349.16;;;6.77;100.00
13695;BME280;6919;52.344;14.518;2023-10-19T05:50:09;99350.31;;;6.74;100.00
13695;BME280;6919;52.344;14.518;2023-10-19T05:52:41;99349.97;;;6.69;100.00
13695;BME280;6919;52.344;14.518;2023-10-19T05:55:11;99354.47;;;6.69;100.00
13695;BME280;6919;52.344;14.518;2023-10-19T05:57:40;99346.47;;;6.69;100.00
13695;BME280;6919;52.344;14.518;2023-10-19T06:00:11;99355.00;;;6.72;100.00
13695;BME280;6919;52.344;14.518;2023-10-19T06:02:45;99344.50;;;6.71;100.00
13695;BME280;6919;52.344;14.518;2023-10-19T06:05:15;99350.63;;;6.63;100.00
13695;BME280;6919;52.344;14.518;2023-10-19T06:07:45;99344.66;;;6.69;100.00
13695;BME280;6919;52.344;14.518;2023-10-19T06:10:19;99341.88;;;6.87;100.00
13695;BME280;6919;52.344;14.518;2023-10-19T06:12:50;99344.91;;;6.92;100.00
13695;BME280;6919;52.344;14.518;2023-10-19T06:15:21;99332.63;;;6.99;100.00
13695;BME280;6919;52.344;14.518;2023-10-19T06:17:51;99329.97;;;7.07;100.00
13695;BME280;6919;52.344;14.518;2023-10-19T06:20:20;99332.25;;;7.02;100.00
13695;BME280;6919;52.344;14.518;2023-10-19T06:22:51;99338.44;;;7.02;100.00
13695;BME280;6919;52.344;14.518;2023-10-19T06:25:23;99336.09;;;6.99;100.00
13695;BME280;6919;52.344;14.518;2023-10-19T06:27:53;99337.28;;;7.05;100.00
13695;BME280;6919;52.344;14.518;2023-10-19T06:30:25;99342.59;;;7.05;100.00
13695;BME280;6919;52.344;14.518;2023-10-19T06:32:56;99337.28;;;7.13;100.00
13695;BME280;6919;52.344;14.518;2023-10-19T06:35:28;99330.81;;;7.15;100.00
13695;BME280;6919;52.344;14.518;2023-10-19T06:38:00;99334.97;;;7.18;100.00
13695;BME280;6919;52.344;14.518;2023-10-19T06:40:35;99329.13;;;7.14;100.00
13695;BME280;6919;52.344;14.518;2023-10-19T06:43:04;99331.31;;;7.19;100.00
13695;BME280;6919;52.344;14.518;2023-10-19T06:45:33;99329.84;;;7.32;100.00
13695;BME280;6919;52.344;14.518;2023-10-19T06:48:01;99328.66;;;7.27;100.00
13695;BME280;6919;52.344;14.518;2023-10-19T06:50:31;99325.34;;;7.41;100.00
13695;BME280;6919;52.344;14.518;2023-10-19T06:53:00;99331.19;;;7.36;100.00
13695;BME280;6919;52.344;14.518;2023-10-19T06:55:33;99329.38;;;7.45;100.00
13695;BME280;6919;52.344;14.518;2023-10-19T06:58:02;99323.03;;;7.54;100.00
13695;BME280;6919;52.344;14.518;2023-10-19T07:00:34;99319.34;;;7.47;100.00
13695;BME280;6919;52.344;14.518;2023-10-19T07:03:13;99317.38;;;7.49;100.00
13695;BME280;6919;52.344;14.518;2023-10-19T07:05:41;99314.88;;;7.47;100.00
13695;BME280;6919;52.344;14.518;2023-10-19T07:08:10;99306.53;;;7.58;100.00
13695;BME280;6919;52.344;14.518;2023-10-19T07:10:39;99307.19;;;7.60;100.00
13695;BME280;6919;52.344;14.518;2023-10-19T07:13:08;99302.03;;;7.67;100.00
13695;BME280;6919;52.344;14.518;2023-10-19T07:15:36;99306.03;;;7.71;100.00
13695;BME280;6919;52.344;14.518;2023-10-19T07:18:07;99306.84;;;7.63;100.00
13695;BME280;6919;52.344;14.518;2023-10-19T07:20:39;99312.34;;;7.54;100.00
13695;BME280;6919;52.344;14.518;2023-10-19T07:23:10;99302.69;;;7.69;100.00
13695;BME280;6919;52.344;14.518;2023-10-19T07:25:48;99305.69;;;7.74;100.00
13695;BME280;6919;52.344;14.518;2023-10-19T07:28:22;99315.03;;;7.70;100.00
13695;BME280;6919;52.344;14.518;2023-10-19T07:30:53;99321.34;;;7.69;100.00
13695;BME280;6919;52.344;14.518;2023-10-19T07:33:23;99311.34;;;7.79;100.00
13695;BME280;6919;52.344;14.518;2023-10-19T07:35:53;99302.81;;;7.91;100.00
13695;BME280;6919;52.344;14.518;2023-10-19T07:38:22;99290.97;;;7.94;100.00
13695;BME280;6919;52.344;14.518;2023-10-19T07:40:52;99286.66;;;7.85;100.00
13695;BME280;6919;52.344;14.518;2023-10-19T07:43:21;99281.81;;;7.88;100.00
13695;BME280;6919;52.344;14.518;2023-10-19T07:45:50;99288.00;;;7.73;100.00
13695;BME280;6919;52.344;14.518;2023-10-19T07:48:20;99286.81;;;7.91;100.00
13695;BME280;6919;52.344;14.518;2023-10-19T07:50:48;99285.31;;;8.05;100.00
13695;BME280;6919;52.344;14.518;2023-10-19T07:53:16;99281.66;;;7.98;100.00
13695;BME280;6919;52.344;14.518;2023-10-19T07:55:45;99285.78;;;8.08;100.00
13695;BME280;6919;52.344;14.518;2023-10-19T07:58:15;99278.13;;;8.21;100.00
13695;BME280;6919;52.344;14.518;2023-10-19T08:00:43;99274.44;;;8.22;100.00
13695;BME280;6919;52.344;14.518;2023-10-19T08:03:13;99263.03;;;8.36;100.00
13695;BME280;6919;52.344;14.518;2023-10-19T08:05:43;99254.34;;;8.34;100.00
13695;BME280;6919;52.344;14.518;2023-10-19T08:08:11;99245.88;;;8.31;100.00
13695;BME280;6919;52.344;14.518;2023-10-19T08:10:40;99242.91;;;8.26;100.00
13695;BME280;6919;52.344;14.518;2023-10-19T08:13:08;99235.41;;;8.21;100.00
13695;BME280;6919;52.344;14.518;2023-10-19T08:15:41;99228.31;;;8.36;100.00
13695;BME280;6919;52.344;14.518;2023-10-19T08:18:09;99234.63;;;8.43;100.00
13695;BME280;6919;52.344;14.518;2023-10-19T08:20:39;99244.13;;;8.46;100.00
13695;BME280;6919;52.344;14.518;2023-10-19T08:23:07;99239.59;;;8.54;100.00
13695;BME280;6919;52.344;14.518;2023-10-19T08:25:36;99246.50;;;8.41;100.00
13695;BME280;6919;52.344;14.518;2023-10-19T08:28:22;99244.00;;;8.39;100.00
13695;BME280;6919;52.344;14.518;2023-10-19T08:30:52;99251.50;;;8.44;100.00
13695;BME280;6919;52.344;14.518;2023-10-19T08:33:28;99257.03;;;8.42;100.00
13695;BME280;6919;52.344;14.518;2023-10-19T08:36:00;99268.94;;;8.16;100.00
13695;BME280;6919;52.344;14.518;2023-10-19T08:38:28;99266.97;;;8.02;100.00
13695;BME280;6919;52.344;14.518;2023-10-19T08:40:57;99272.44;;;8.08;100.00
13695;BME280;6919;52.344;14.518;2023-10-19T08:43:27;99273.78;;;8.04;100.00
13695;BME280;6919;52.344;14.518;2023-10-19T08:45:58;99274.22;;;8.32;100.00
13695;BME280;6919;52.344;14.518;2023-10-19T08:48:26;99259.56;;;8.20;100.00
13695;BME280;6919;52.344;14.518;2023-10-19T08:50:57;99265.16;;;8.49;100.00
13695;BME280;6919;52.344;14.518;2023-10-19T08:53:27;99272.56;;;8.31;100.00
13695;BME280;6919;52.344;14.518;2023-10-19T08:55:56;99280.56;;;8.39;100.00
13695;BME280;6919;52.344;14.518;2023-10-19T08:58:25;99279.28;;;8.27;100.00
13695;BME280;6919;52.344;14.518;2023-10-19T09:00:54;99278.63;;;8.09;100.00
13695;BME280;6919;52.344;14.518;2023-10-19T09:03:25;99273.59;;;8.14;100.00
13695;BME280;6919;52.344;14.518;2023-10-19T09:05:56;99262.75;;;8.15;100.00
13695;BME280;6919;52.344;14.518;2023-10-19T09:08:24;99264.84;;;8.44;100.00
13695;BME280;6919;52.344;14.518;2023-10-19T09:10:52;99270.38;;;8.42;100.00
13695;BME280;6919;52.344;14.518;2023-10-19T09:13:23;99259.13;;;8.55;100.00
13695;BME280;6919;52.344;14.518;2023-10-19T09:15:52;99239.88;;;8.67;100.00
13695;BME280;6919;52.344;14.518;2023-10-19T09:18:25;99237.75;;;8.85;100.00
13695;BME280;6919;52.344;14.518;2023-10-19T09:20:57;99228.47;;;8.73;100.00
13695;BME280;6919;52.344;14.518;2023-10-19T09:23:35;99220.25;;;8.52;100.00
13695;BME280;6919;52.344;14.518;2023-10-19T09:26:05;99229.97;;;8.76;100.00
13695;BME280;6919;52.344;14.518;2023-10-19T09:28:36;99227.47;;;8.74;100.00
13695;BME280;6919;52.344;14.518;2023-10-19T09:31:06;99218.16;;;8.62;100.00
13695;BME280;6919;52.344;14.518;2023-10-19T09:33:40;99210.81;;;8.64;100.00
13695;BME280;6919;52.344;14.518;2023-10-19T09:36:12;99209.63;;;8.67;100.00
13695;BME280;6919;52.344;14.518;2023-10-19T09:38:45;99207.81;;;8.59;100.00
13695;BME280;6919;52.344;14.518;2023-10-19T09:41:18;99209.88;;;8.57;100.00
13695;BME280;6919;52.344;14.518;2023-10-19T09:43:49;99212.38;;;8.59;100.00
13695;BME280;6919;52.344;14.518;2023-10-19T09:46:23;99214.28;;;8.73;100.00
13695;BME280;6919;52.344;14.518;2023-10-19T09:48:54;99213.38;;;8.58;100.00
13695;BME280;6919;52.344;14.518;2023-10-19T09:51:23;99206.41;;;8.49;100.00
13695;BME280;6919;52.344;14.518;2023-10-19T09:53:59;99197.56;;;8.79;100.00
13695;BME280;6919;52.344;14.518;2023-10-19T09:56:36;99201.38;;;8.76;100.00
13695;BME280;6919;52.344;14.518;2023-10-19T09:59:22;99201.97;;;8.64;100.00
13695;BME280;6919;52.344;14.518;2023-10-19T10:02:07;99206.09;;;8.74;100.00
13695;BME280;6919;52.344;14.518;2023-10-19T10:04:39;99198.09;;;8.66;100.00
13695;BME280;6919;52.344;14.518;2023-10-19T10:07:09;99208.41;;;8.47;100.00
13695;BME280;6919;52.344;14.518;2023-10-19T10:09:40;99201.63;;;8.67;100.00
13695;BME280;6919;52.344;14.518;2023-10-19T10:12:21;99201.38;;;8.76;100.00
13695;BME280;6919;52.344;14.518;2023-10-19T10:14:59;99195.41;;;8.74;100.00
13695;BME280;6919;52.344;14.518;2023-10-19T10:17:33;99193.78;;;8.65;100.00
13695;BME280;6919;52.344;14.518;2023-10-19T10:20:31;99178.69;;;8.72;100.00
13695;BME280;6919;52.344;14.518;2023-10-19T10:23:21;99179.91;;;8.92;100.00
13695;BME280;6919;52.344;14.518;2023-10-19T10:25:53;99180.94;;;8.91;100.00
13695;BME280;6919;52.344;14.518;2023-10-19T10:28:22;99174.59;;;9.07;100.00
13695;BME280;6919;52.344;14.518;2023-10-19T10:31:12;99170.63;;;9.03;100.00
13695;BME280;6919;52.344;14.518;2023-10-19T10:33:48;99162.00;;;9.16;100.00
13695;BME280;6919;52.344;14.518;2023-10-19T10:36:19;99158.19;;;9.10;100.00
13695;BME280;6919;52.344;14.518;2023-10-19T10:38:50;99151.44;;;8.99;100.00
13695;BME280;6919;52.344;14.518;2023-10-19T10:41:23;99128.97;;;9.08;100.00
13695;BME280;6919;52.344;14.518;2023-10-19T10:43:56;99139.22;;;9.05;100.00
13695;BME280;6919;52.344;14.518;2023-10-19T10:46:27;99132.06;;;9.20;100.00
13695;BME280;6919;52.344;14.518;2023-10-19T10:48:56;99139.63;;;9.31;100.00
13695;BME280;6919;52.344;14.518;2023-10-19T10:51:28;99133.78;;;9.50;100.00
13695;BME280;6919;52.344;14.518;2023-10-19T10:53:58;99139.13;;;9.50;100.00
13695;BME280;6919;52.344;14.518;2023-10-19T10:56:26;99129.63;;;9.62;100.00
13695;BME280;6919;52.344;14.518;2023-10-19T10:58:55;99126.50;;;9.59;100.00
13695;BME280;6919;52.344;14.518;2023-10-19T11:01:31;99133.69;;;9.58;100.00
13695;BME280;6919;52.344;14.518;2023-10-19T11:04:08;99143.00;;;9.62;100.00
13695;BME280;6919;52.344;14.518;2023-10-19T11:06:50;99142.72;;;9.72;100.00
13695;BME280;6919;52.344;14.518;2023-10-19T11:09:19;99133.13;;;9.63;100.00
13695;BME280;6919;52.344;14.518;2023-10-19T11:11:49;99131.19;;;9.57;100.00
13695;BME280;6919;52.344;14.518;2023-10-19T11:14:19;99123.88;;;9.51;100.00
13695;BME280;6919;52.344;14.518;2023-10-19T11:16:49;99117.25;;;9.47;100.00
13695;BME280;6919;52.344;14.518;2023-10-19T11:19:17;99119.00;;;9.40;100.00
13695;BME280;6919;52.344;14.518;2023-10-19T11:21:56;99111.53;;;9.50;100.00
13695;BME280;6919;52.344;14.518;2023-10-19T11:24:27;99112.19;;;9.52;100.00
13695;BME280;6919;52.344;14.518;2023-10-19T11:27:01;99112.72;;;9.47;100.00
13695;BME280;6919;52.344;14.518;2023-10-19T11:29:29;99113.28;;;9.43;100.00
13695;BME280;6919;52.344;14.518;2023-10-19T11:31:58;99108.66;;;9.37;100.00
13695;BME280;6919;52.344;14.518;2023-10-19T11:34:30;99112.72;;;9.47;100.00
13695;BME280;6919;52.344;14.518;2023-10-19T11:37:03;99118.34;;;9.52;100.00
13695;BME280;6919;52.344;14.518;2023-10-19T11:39:33;99114.09;;;9.58;100.00
13695;BME280;6919;52.344;14.518;2023-10-19T11:42:01;99101.28;;;9.39;100.00
13695;BME280;6919;52.344;14.518;2023-10-19T11:44:30;99096.13;;;9.52;100.00
13695;BME280;6919;52.344;14.518;2023-10-19T11:46:59;99090.31;;;9.63;100.00
13695;BME280;6919;52.344;14.518;2023-10-19T11:49:28;99080.44;;;9.63;100.00
13695;BME280;6919;52.344;14.518;2023-10-19T11:51:56;99096.03;;;9.45;100.00
13695;BME280;6919;52.344;14.518;2023-10-19T11:54:26;99085.81;;;9.49;100.00
13695;BME280;6919;52.344;14.518;2023-10-19T11:56:54;99086.53;;;9.43;100.00
13695;BME280;6919;52.344;14.518;2023-10-19T11:59:23;99085.59;;;9.36;100.00
13695;BME280;6919;52.344;14.518;2023-10-19T12:01:51;99075.56;;;9.38;100.00
13695;BME280;6919;52.344;14.518;2023-10-19T12:04:22;99072.78;;;9.46;100.00
13695;BME280;6919;52.344;14.518;2023-10-19T12:06:50;99054.97;;;9.38;100.00
13695;BME280;6919;52.344;14.518;2023-10-19T12:09:18;99062.91;;;9.32;100.00
13695;BME280;6919;52.344;14.518;2023-10-19T12:11:52;99062.53;;;9.20;100.00
13695;BME280;6919;52.344;14.518;2023-10-19T12:14:22;99060.22;;;9.17;100.00
13695;BME280;6919;52.344;14.518;2023-10-19T12:16:50;99050.91;;;9.13;100.00
13695;BME280;6919;52.344;14.518;2023-10-19T12:19:18;99065.50;;;9.25;100.00
13695;BME280;6919;52.344;14.518;2023-10-19T12:21:47;99067.41;;;9.31;100.00
13695;BME280;6919;52.344;14.518;2023-10-19T12:24:17;99073.97;;;9.29;100.00
13695;BME280;6919;52.344;14.518;2023-10-19T12:26:47;99070.56;;;9.20;100.00
13695;BME280;6919;52.344;14.518;2023-10-19T12:29:19;99074.44;;;9.18;100.00
13695;BME280;6919;52.344;14.518;2023-10-19T12:31:48;99068.22;;;9.17;100.00
13695;BME280;6919;52.344;14.518;2023-10-19T12:34:17;99067.31;;;9.10;100.00
13695;BME280;6919;52.344;14.518;2023-10-19T12:36:45;99062.22;;;9.00;100.00
13695;BME280;6919;52.344;14.518;2023-10-19T12:39:14;99064.81;;;9.08;100.00
13695;BME280;6919;52.344;14.518;2023-10-19T12:42:02;99065.38;;;9.04;100.00
13695;BME280;6919;52.344;14.518;2023-10-19T12:44:33;99059.84;;;9.06;100.00
13695;BME280;6919;52.344;14.518;2023-10-19T12:47:07;99062.06;;;9.17;100.00
13695;BME280;6919;52.344;14.518;2023-10-19T12:49:38;99060.47;;;9.07;100.00
13695;BME280;6919;52.344;14.518;2023-10-19T12:52:08;99053.19;;;9.01;100.00
13695;BME280;6919;52.344;14.518;2023-10-19T12:54:37;99050.22;;;8.96;100.00
13695;BME280;6919;52.344;14.518;2023-10-19T12:57:06;99049.78;;;9.07;100.00
13695;BME280;6919;52.344;14.518;2023-10-19T12:59:36;99051.06;;;8.97;100.00
13695;BME280;6919;52.344;14.518;2023-10-19T13:02:06;99056.88;;;9.00;100.00
13695;BME280;6919;52.344;14.518;2023-10-19T13:04:36;99056.97;;;9.07;100.00
13695;BME280;6919;52.344;14.518;2023-10-19T13:07:05;99063.41;;;8.98;100.00
13695;BME280;6919;52.344;14.518;2023-10-19T13:09:34;99057.75;;;8.78;100.00
13695;BME280;6919;52.344;14.518;2023-10-19T13:12:03;99047.78;;;8.72;100.00
13695;BME280;6919;52.344;14.518;2023-10-19T13:14:36;99055.66;;;8.88;100.00
13695;BME280;6919;52.344;14.518;2023-10-19T13:17:04;99053.75;;;9.12;100.00
13695;BME280;6919;52.344;14.518;2023-10-19T13:19:33;99044.81;;;9.04;100.00
13695;BME280;6919;52.344;14.518;2023-10-19T13:22:03;99040.38;;;8.97;100.00